createdAt,value
2024-04-12T00:01:06.929Z,61.84
2024-04-12T00:05:08.796Z,61.53
2024-04-12T00:09:11.093Z,62.34
2024-04-12T00:13:12.824Z,62.28
2024-04-12T00:17:18.278Z,61.52
2024-04-12T00:21:24.475Z,62.52
2024-04-12T00:25:26.204Z,62.86
2024-04-12T00:29:32.619Z,62.52
2024-04-12T00:33:36.133Z,63.38
2024-04-12T00:37:41.272Z,62.49
2024-04-12T00:41:44.342Z,62.24
2024-04-12T00:45:47.465Z,63.10
2024-04-12T00:49:54.621Z,63.78
2024-04-12T00:54:00.263Z,63.46
2024-04-12T00:58:02.485Z,63.59
2024-04-12T01:02:10.069Z,64.15
2024-04-12T01:06:12.061Z,63.88
2024-04-12T01:10:13.974Z,63.46
2024-04-12T01:14:15.962Z,63.71
2024-04-12T01:18:18.286Z,63.60
2024-04-12T01:22:20.261Z,63.15
2024-04-12T01:26:25.055Z,64.28
2024-04-12T01:30:27.108Z,64.09
2024-04-12T01:34:31.375Z,64.15
2024-04-12T01:38:38.584Z,64.56
2024-04-12T01:42:44.571Z,64.33
2024-04-12T01:46:49.668Z,64.54
2024-04-12T01:50:54.655Z,63.86
2024-04-12T01:55:08.812Z,64.93
2024-04-12T01:59:16.209Z,65.04
2024-04-12T02:03:20.114Z,64.92
2024-04-12T02:07:28.630Z,65.09
2024-04-12T02:11:30.388Z,64.63
2024-04-12T02:15:32.115Z,64.97
2024-04-12T02:19:37.334Z,65.94
2024-04-12T02:23:39.502Z,65.98
2024-04-12T02:27:41.711Z,65.81
2024-04-12T02:31:45.075Z,66.90
2024-04-12T02:35:48.315Z,66.44
2024-04-12T02:39:50.481Z,66.24
2024-04-12T02:43:56.728Z,65.64
2024-04-12T02:47:58.842Z,66.81
2024-04-12T02:52:02.472Z,66.46
2024-04-12T02:56:13.058Z,65.79
2024-04-12T03:00:23.948Z,67.33
2024-04-12T03:04:25.829Z,67.40
2024-04-12T03:08:28.137Z,66.78
2024-04-12T03:12:29.921Z,67.31
2024-04-12T03:16:32.887Z,67.41
2024-04-12T03:20:36.871Z,67.73
2024-04-12T03:24:38.767Z,68.16
2024-04-12T03:28:41.923Z,68.70
2024-04-12T03:32:47.531Z,69.53
2024-04-12T03:36:50.335Z,69.88
2024-04-12T03:41:02.029Z,68.47
2024-04-12T03:45:14.619Z,70.21
2024-04-12T03:49:17.152Z,68.24
2024-04-12T03:53:19.085Z,69.40
2024-04-12T03:57:28.599Z,69.90
2024-04-12T04:01:32.687Z,69.81
2024-04-12T04:05:34.688Z,69.91
2024-04-12T04:09:36.986Z,70.14
2024-04-12T04:13:43.161Z,69.86
2024-04-12T04:17:51.238Z,68.87
2024-04-12T04:21:53.114Z,69.27
2024-04-12T04:25:56.698Z,69.76
2024-04-12T04:29:58.789Z,69.21
2024-04-12T04:34:00.652Z,69.86
2024-04-12T04:38:02.483Z,70.02
2024-04-12T04:42:06.445Z,69.79
2024-04-12T04:46:28.491Z,69.51
2024-04-12T04:50:30.517Z,68.75
2024-04-12T04:54:32.306Z,68.59
2024-04-12T04:58:35.757Z,69.50
2024-04-12T05:02:37.832Z,69.76
2024-04-12T05:06:39.742Z,70.05
2024-04-12T05:10:41.720Z,70.43
2024-04-12T05:14:47.860Z,70.03
2024-04-12T05:18:50.901Z,69.74
2024-04-12T05:22:52.847Z,70.17
2024-04-12T05:27:03.146Z,69.26
2024-04-12T05:31:13.096Z,69.03
2024-04-12T05:35:16.947Z,69.19
2024-04-12T05:39:21.146Z,69.28
2024-04-12T05:43:23.922Z,69.16
2024-04-12T05:47:26.329Z,68.95
2024-04-12T05:51:28.360Z,68.60
2024-04-12T05:55:31.551Z,68.61
2024-04-12T05:59:33.872Z,68.26
2024-04-12T06:03:54.079Z,67.89
2024-04-12T06:07:59.812Z,67.21
2024-04-12T06:12:04.242Z,66.21
2024-04-12T06:16:06.849Z,65.91
2024-04-12T06:20:09.773Z,65.62
2024-04-12T06:24:11.790Z,65.64
2024-04-12T06:28:14.749Z,66.37
2024-04-12T06:32:17.974Z,66.04
2024-04-12T06:36:20.162Z,66.20
2024-04-12T06:40:29.574Z,65.08
2024-04-12T06:44:34.428Z,64.72
2024-04-12T06:48:38.052Z,64.46
2024-04-12T06:52:42.146Z,63.71
2024-04-12T06:56:44.075Z,64.96
2024-04-12T07:00:47.874Z,64.65
2024-04-12T07:04:49.891Z,63.76
2024-04-12T07:08:51.967Z,63.08
2024-04-12T07:12:57.080Z,63.04
2024-04-12T07:17:01.023Z,62.41
2024-04-12T07:21:18.282Z,61.54
2024-04-12T07:25:25.036Z,60.48
2024-04-12T07:29:26.756Z,58.36
2024-04-12T07:33:29.144Z,57.49
2024-04-12T07:37:33.719Z,57.46
2024-04-12T07:41:48.000Z,57.07
2024-04-12T07:45:49.768Z,54.54
2024-04-12T07:49:51.559Z,52.62
2024-04-12T07:53:54.855Z,51.37
2024-04-12T07:57:56.897Z,51.88
2024-04-12T08:01:59.825Z,49.48
2024-04-12T08:06:04.315Z,49.64
2024-04-12T08:10:27.473Z,49.51
2024-04-12T08:14:31.379Z,48.78
2024-04-12T08:18:37.871Z,45.88
2024-04-12T08:22:45.198Z,46.56
2024-04-12T08:26:49.522Z,46.79
2024-04-12T08:30:55.993Z,46.64
2024-04-12T08:35:08.666Z,45.74
2024-04-12T08:39:14.028Z,44.64
2024-04-12T08:43:21.038Z,43.88
2024-04-12T08:47:26.942Z,44.32
2024-04-12T08:51:35.854Z,42.83
2024-04-12T08:55:43.920Z,44.70
2024-04-12T08:59:48.379Z,43.79
2024-04-12T09:03:53.322Z,42.56
2024-04-12T09:08:01.448Z,45.20
2024-04-12T09:12:13.959Z,43.04
2024-04-12T09:16:20.819Z,43.32
2024-04-12T09:20:31.764Z,41.48
2024-04-12T09:24:33.932Z,39.61
2024-04-12T09:28:39.163Z,42.83
2024-04-12T09:32:54.671Z,40.57
2024-04-12T09:36:58.097Z,40.26
2024-04-12T09:41:14.733Z,40.22
2024-04-12T09:45:23.986Z,38.44
2024-04-12T09:49:46.290Z,38.57
2024-04-12T09:54:07.187Z,38.79
2024-04-12T09:58:31.521Z,38.29
2024-04-12T10:02:51.839Z,39.99
2024-04-12T10:07:35.013Z,38.02
2024-04-12T10:11:55.707Z,39.23
2024-04-12T10:16:22.514Z,36.93
2024-04-12T10:20:45.170Z,37.17
2024-04-12T10:25:13.347Z,37.07
2024-04-12T10:29:36.223Z,35.27
2024-04-12T10:34:03.968Z,37.58
2024-04-12T10:38:13.258Z,33.28
2024-04-12T10:42:27.426Z,37.91
2024-04-12T10:46:29.420Z,33.85
2024-04-12T10:50:31.475Z,33.81
2024-04-12T10:54:34.358Z,34.42
2024-04-12T10:58:36.188Z,35.54
2024-04-12T11:02:41.819Z,35.83
2024-04-12T11:06:46.315Z,34.08
2024-04-12T11:10:59.644Z,33.82
2024-04-12T11:15:20.235Z,32.37
2024-04-12T11:19:40.618Z,35.76
2024-04-12T11:24:01.171Z,35.86
2024-04-12T11:28:26.516Z,35.75
2024-04-12T11:32:28.881Z,33.69
2024-04-12T11:36:34.681Z,32.87
2024-04-12T11:40:39.716Z,35.31
2024-04-12T11:44:46.357Z,34.16
2024-04-12T11:48:48.332Z,33.66
2024-04-12T11:52:55.982Z,32.78
2024-04-12T11:57:03.242Z,32.84
2024-04-12T12:01:05.903Z,34.07
2024-04-12T12:05:07.777Z,33.62
2024-04-12T12:09:15.790Z,33.61
2024-04-12T12:13:18.211Z,34.95
2024-04-12T12:17:21.223Z,34.02
2024-04-12T12:21:24.602Z,33.93
2024-04-12T12:25:28.051Z,33.38
2024-04-12T12:29:30.011Z,32.91
2024-04-12T12:33:39.546Z,36.42
2024-04-12T12:37:41.711Z,34.66
2024-04-12T12:41:47.166Z,33.22
2024-04-12T12:45:49.149Z,34.95
2024-04-12T12:49:54.722Z,34.86
2024-04-12T12:53:57.751Z,33.95
2024-04-12T12:58:12.146Z,33.91
2024-04-12T13:02:16.395Z,35.05
2024-04-12T13:06:24.671Z,36.08
2024-04-12T13:10:26.527Z,34.50
2024-04-12T13:14:28.431Z,33.67
2024-04-12T13:18:30.450Z,34.70
2024-04-12T13:22:33.827Z,34.20
2024-04-12T13:26:35.775Z,35.27
2024-04-12T13:30:37.484Z,34.79
2024-04-12T13:34:39.779Z,37.48
2024-04-12T13:38:41.741Z,34.42
2024-04-12T13:42:43.647Z,35.53
2024-04-12T13:47:03.973Z,33.22
2024-04-12T13:51:06.088Z,33.99
2024-04-12T13:55:12.619Z,34.58
2024-04-12T13:59:14.547Z,35.34
2024-04-12T14:03:23.376Z,33.48
2024-04-12T14:07:25.595Z,36.00
2024-04-12T14:11:28.820Z,35.19
2024-04-12T14:15:31.214Z,34.97
2024-04-12T14:19:33.083Z,35.87
2024-04-12T14:23:35.095Z,35.29
2024-04-12T14:27:37.200Z,33.36
2024-04-12T14:31:39.874Z,33.98
2024-04-12T14:35:43.491Z,33.06
2024-04-12T14:39:47.810Z,34.06
2024-04-12T14:43:49.615Z,32.47
2024-04-12T14:47:58.789Z,34.34
2024-04-12T14:52:13.104Z,34.09
2024-04-12T14:56:18.516Z,33.36
2024-04-12T15:00:22.599Z,33.75
2024-04-12T15:04:42.823Z,34.07
2024-04-12T15:09:03.649Z,33.80
2024-04-12T15:13:24.405Z,35.35
2024-04-12T15:17:44.947Z,35.33
2024-04-12T15:22:05.342Z,35.52
2024-04-12T15:26:26.096Z,37.36
2024-04-12T15:30:46.324Z,37.05
2024-04-12T15:35:07.891Z,36.79
2024-04-12T15:39:29.159Z,36.55
2024-04-12T15:44:02.886Z,36.86
2024-04-12T15:48:13.299Z,36.77
2024-04-12T16:03:47.116Z,37.67
2024-04-12T16:08:08.767Z,38.71
2024-04-12T16:12:12.353Z,38.66
2024-04-12T16:16:23.311Z,39.29
2024-04-12T16:20:26.352Z,40.43
2024-04-12T16:24:28.295Z,39.87
2024-04-12T16:28:31.146Z,40.50
2024-04-12T16:32:37.229Z,40.70
2024-04-12T16:36:39.410Z,40.30
2024-04-12T16:40:42.681Z,41.54
2024-04-12T16:44:45.532Z,42.18
2024-04-12T16:48:48.528Z,42.30
2024-04-12T16:52:51.407Z,42.41
2024-04-12T16:57:07.934Z,41.47
2024-04-12T17:05:27.677Z,44.13
2024-04-12T17:09:43.023Z,43.05
2024-04-12T17:13:46.480Z,44.60
2024-04-12T17:17:49.057Z,45.70
2024-04-12T17:21:52.045Z,45.42
2024-04-12T17:25:54.365Z,45.83
2024-04-12T17:30:08.811Z,44.63
2024-04-12T17:34:11.590Z,46.84
2024-04-12T17:38:13.382Z,47.28
2024-04-12T17:42:15.122Z,47.35
2024-04-12T17:46:20.696Z,46.74
2024-04-12T17:50:25.205Z,47.99
2024-04-12T17:54:27.236Z,48.18
2024-04-12T17:58:31.396Z,48.61
2024-04-12T18:02:56.310Z,47.25
2024-04-12T18:07:00.978Z,49.09
2024-04-12T18:11:09.984Z,48.34
2024-04-12T18:15:11.846Z,49.91
2024-04-12T18:19:13.832Z,49.92
2024-04-12T18:23:15.586Z,49.13
2024-04-12T18:27:17.729Z,49.97
2024-04-12T18:31:19.936Z,50.86
2024-04-12T18:35:21.812Z,51.21
2024-04-12T18:39:42.178Z,50.69
2024-04-12T18:44:02.687Z,50.99
2024-04-12T18:48:04.969Z,51.94
2024-04-12T18:52:08.094Z,51.46
2024-04-12T18:56:14.685Z,51.62
2024-04-12T19:00:17.290Z,51.67
2024-04-12T19:04:19.731Z,52.19
2024-04-12T19:08:21.865Z,51.83
2024-04-12T19:12:24.301Z,51.44
2024-04-12T19:16:27.207Z,49.33
2024-04-12T19:20:32.034Z,52.49
2024-04-12T19:24:34.400Z,52.34
2024-04-12T19:28:36.471Z,53.08
2024-04-12T19:32:38.885Z,52.50
2024-04-12T19:36:44.399Z,53.36
2024-04-12T19:40:55.040Z,52.60
2024-04-12T19:45:00.451Z,52.71
2024-04-12T19:49:08.753Z,52.61
2024-04-12T19:53:13.933Z,54.42
2024-04-12T19:57:42.141Z,52.23
2024-04-12T20:01:43.904Z,54.63
2024-04-12T20:05:49.774Z,54.26
2024-04-12T20:09:51.901Z,54.90
2024-04-12T20:13:53.675Z,55.02
2024-04-12T20:17:56.628Z,54.73
2024-04-12T20:21:58.470Z,54.97
2024-04-12T20:26:14.970Z,53.92
2024-04-12T20:30:32.248Z,55.33
2024-04-12T20:34:56.611Z,55.43
2024-04-12T20:38:58.660Z,55.45
2024-04-12T20:43:00.379Z,55.59
2024-04-12T20:47:02.995Z,56.15
2024-04-12T20:51:05.350Z,55.97
2024-04-12T20:55:08.077Z,56.36
2024-04-12T20:59:12.366Z,56.36
2024-04-12T21:03:14.168Z,56.27
2024-04-12T21:07:16.143Z,56.61
2024-04-12T21:11:26.342Z,56.87
2024-04-12T21:15:30.429Z,56.97
2024-04-12T21:19:38.193Z,56.35
2024-04-12T21:23:40.286Z,57.77
2024-04-12T21:27:42.056Z,57.38
2024-04-12T21:31:44.481Z,57.69
2024-04-12T21:35:58.141Z,56.26
2024-04-12T21:40:00.170Z,58.00
2024-04-12T21:44:01.861Z,57.44
2024-04-12T21:48:04.242Z,57.33
2024-04-12T21:52:07.693Z,57.54
2024-04-12T21:56:35.024Z,56.39
2024-04-12T22:01:17.859Z,56.35
2024-04-12T22:05:19.885Z,58.12
2024-04-12T22:09:21.593Z,57.96
2024-04-12T22:13:24.320Z,58.21
2024-04-12T22:17:26.190Z,55.83
2024-04-12T22:21:28.116Z,58.17
2024-04-12T22:25:29.825Z,58.87
2024-04-12T22:29:31.867Z,58.75
2024-04-12T22:33:34.501Z,58.61
2024-04-12T22:37:36.482Z,56.62
2024-04-12T22:41:38.182Z,59.15
2024-04-12T22:45:40.947Z,58.59
2024-04-12T22:49:42.560Z,56.94
2024-04-12T22:53:46.776Z,59.74
2024-04-12T22:57:49.372Z,59.63
2024-04-12T23:01:52.640Z,59.92
2024-04-12T23:05:54.389Z,60.00
2024-04-12T23:09:56.358Z,59.97
2024-04-12T23:14:01.429Z,59.76
2024-04-12T23:18:03.538Z,60.49
2024-04-12T23:22:06.260Z,60.00
2024-04-12T23:26:20.094Z,59.44
2024-04-12T23:30:21.972Z,60.46
2024-04-12T23:34:24.169Z,60.98
2024-04-12T23:38:25.842Z,60.83
2024-04-12T23:42:27.898Z,60.93
2024-04-12T23:46:29.617Z,60.84
2024-04-12T23:50:31.644Z,60.66
2024-04-12T23:54:33.543Z,61.45
2024-04-12T23:58:36.828Z,60.68
